Time;durP1;ratioP1;P1;durP2;ratioP2;P2;SDS_P1;SDS_P2;PMS_P1;PMS_P2;Temp;Humidity;BMP_temperature;BMP_pressure;BME280_temperature;BME280_humidity;BME280_pressure;Samples;Min_cycle;Max_cycle;Signal;HPM_P1;HPM_P2
2021/01/15 00:01:47;;;;;;;7.83;4.53;;;0.50;99.90;;;;;;4990398;28;20522;-77
2021/01/15 00:04:13;;;;;;;8.00;5.90;;;0.50;99.90;;;;;;4992903;28;20225;-76
2021/01/15 00:06:38;;;;;;;7.30;5.60;;;0.50;99.90;;;;;;4979316;28;20651;-76
2021/01/15 00:09:04;;;;;;;6.33;4.80;;;0.40;99.90;;;;;;4979240;28;20899;-76
2021/01/15 00:11:32;;;;;;;7.13;4.82;;;0.40;99.90;;;;;;4975426;28;20210;-77
2021/01/15 00:14:02;;;;;;;7.53;6.00;;;0.40;99.90;;;;;;4996701;28;20322;-76
2021/01/15 00:16:30;;;;;;;9.10;5.10;;;0.50;99.90;;;;;;4989904;28;20207;-77
2021/01/15 00:18:58;;;;;;;5.80;5.05;;;0.40;99.90;;;;;;4977125;28;20194;-77
2021/01/15 00:21:26;;;;;;;6.13;4.88;;;0.40;99.90;;;;;;4975842;28;20690;-77
2021/01/15 00:23:54;;;;;;;7.80;5.93;;;0.40;99.90;;;;;;4982687;28;20195;-76
2021/01/15 00:26:22;;;;;;;6.70;5.30;;;0.40;99.90;;;;;;4977843;28;20187;-76
2021/01/15 00:28:49;;;;;;;9.05;4.07;;;0.40;99.90;;;;;;4994899;28;20691;-77
2021/01/15 00:31:14;;;;;;;6.70;4.45;;;0.40;99.90;;;;;;4991005;28;20202;-77
2021/01/15 00:33:40;;;;;;;5.23;4.73;;;0.40;99.90;;;;;;4979074;28;20324;-77
2021/01/15 00:36:07;;;;;;;5.43;4.35;;;0.40;99.90;;;;;;4971202;28;20853;-77
2021/01/15 00:38:33;;;;;;;5.32;4.70;;;0.40;99.90;;;;;;4972025;28;20215;-76
2021/01/15 00:41:07;;;;;;;8.33;5.20;;;0.40;99.90;;;;;;4981037;28;20611;-76
2021/01/15 00:43:33;;;;;;;6.65;5.00;;;0.40;99.90;;;;;;4994729;28;20449;-76
2021/01/15 00:45:59;;;;;;;8.15;5.63;;;0.40;99.90;;;;;;4995995;28;20229;-76
2021/01/15 00:48:25;;;;;;;9.10;5.70;;;0.50;99.90;;;;;;4994852;28;20241;-76
2021/01/15 00:50:52;;;;;;;7.68;5.40;;;0.40;99.90;;;;;;4988990;28;20198;-76
2021/01/15 00:53:17;;;;;;;7.38;5.07;;;0.40;99.90;;;;;;4978163;28;20234;-76
2021/01/15 00:55:43;;;;;;;8.73;5.03;;;0.40;99.90;;;;;;4995226;28;20171;-76
2021/01/15 00:58:13;;;;;;;6.60;5.33;;;0.40;99.90;;;;;;4964601;28;20450;-76
2021/01/15 01:00:39;;;;;;;8.35;5.07;;;0.40;99.90;;;;;;4967088;28;20419;-76
2021/01/15 01:03:06;;;;;;;7.82;6.13;;;0.30;99.90;;;;;;4976025;28;21677;-76
2021/01/15 01:05:32;;;;;;;10.75;5.68;;;0.30;99.90;;;;;;4993217;28;20182;-76
2021/01/15 01:07:58;;;;;;;10.27;5.60;;;0.30;99.90;;;;;;4994026;28;20225;-76
2021/01/15 01:10:24;;;;;;;7.00;5.60;;;0.30;99.90;;;;;;4976604;28;20202;-76
2021/01/15 01:12:50;;;;;;;7.23;5.80;;;0.30;99.90;;;;;;4982832;28;20498;-76
2021/01/15 01:15:15;;;;;;;8.50;5.90;;;0.20;99.90;;;;;;4994002;28;20263;-76
2021/01/15 01:17:42;;;;;;;11.50;7.57;;;0.20;99.90;;;;;;4966889;28;20717;-76
2021/01/15 01:20:10;;;;;;;9.55;6.57;;;0.20;99.90;;;;;;4974124;28;20203;-76
2021/01/15 01:22:36;;;;;;;7.75;5.78;;;0.10;99.90;;;;;;4956506;28;20212;-76
2021/01/15 01:25:03;;;;;;;9.35;6.07;;;0.10;99.90;;;;;;4990682;28;20206;-76
2021/01/15 01:27:32;;;;;;;6.70;5.60;;;0.20;99.90;;;;;;4981114;28;20222;-76
2021/01/15 01:29:58;;;;;;;7.90;5.88;;;0.10;99.90;;;;;;4973984;28;20209;-76
2021/01/15 01:32:24;;;;;;;6.32;4.97;;;0.10;99.90;;;;;;4977116;28;20663;-77
2021/01/15 01:34:49;;;;;;;6.93;5.50;;;0.10;99.90;;;;;;4993312;28;20721;-76
2021/01/15 01:37:15;;;;;;;5.83;5.00;;;0.00;99.90;;;;;;4982745;28;20214;-76
2021/01/15 01:39:41;;;;;;;9.90;5.70;;;0.10;99.90;;;;;;4973577;28;20195;-76
2021/01/15 01:42:06;;;;;;;5.87;4.83;;;0.00;99.90;;;;;;4980594;28;20584;-76
2021/01/15 01:44:32;;;;;;;7.87;5.93;;;0.00;99.90;;;;;;4980328;28;20246;-76
2021/01/15 01:46:58;;;;;;;9.63;5.93;;;0.00;99.90;;;;;;4972995;28;20785;-76
2021/01/15 01:49:25;;;;;;;7.22;5.20;;;-0.10;99.90;;;;;;4973241;28;20199;-76
2021/01/15 01:51:51;;;;;;;7.75;5.32;;;0.00;99.90;;;;;;4976553;28;20561;-76
2021/01/15 01:54:18;;;;;;;8.02;4.93;;;-0.10;99.90;;;;;;4982106;28;20242;-76
2021/01/15 01:56:44;;;;;;;6.63;5.68;;;-0.10;99.90;;;;;;4974916;28;20215;-76
2021/01/15 01:59:13;;;;;;;5.93;4.60;;;-0.10;99.90;;;;;;4990044;28;20190;-76
2021/01/15 02:01:39;;;;;;;7.65;5.75;;;-0.20;99.90;;;;;;4956728;28;20422;-77
2021/01/15 02:04:06;;;;;;;6.95;4.65;;;-0.20;99.90;;;;;;4979255;28;20274;-77
2021/01/15 02:06:32;;;;;;;5.30;4.32;;;-0.20;99.90;;;;;;4990145;28;20181;-77
2021/01/15 02:08:58;;;;;;;6.97;5.20;;;-0.20;99.90;;;;;;4982351;28;20249;-76
2021/01/15 02:11:30;;;;;;;6.97;4.97;;;-0.20;99.90;;;;;;4971676;28;20577;-77
2021/01/15 02:14:19;;;;;;;11.25;4.80;;;-0.20;99.90;;;;;;4978150;28;20442;-77
2021/01/15 02:16:44;;;;;;;10.50;5.70;;;-0.20;99.90;;;;;;4988315;28;20203;-77
2021/01/15 02:19:45;;;;;;;6.20;5.50;;;-0.20;99.90;;;;;;4971515;28;20210;-76
2021/01/15 02:22:26;;;;;;;7.13;4.82;;;-0.20;99.90;;;;;;4877194;29;20466;-77
2021/01/15 02:24:54;;;;;;;7.82;5.35;;;-0.30;99.90;;;;;;4971023;28;20246;-77
2021/01/15 02:27:39;;;;;;;7.85;5.07;;;-0.30;99.90;;;;;;4972808;28;20211;-77
2021/01/15 02:30:41;;;;;;;8.95;4.50;;;-0.30;99.90;;;;;;4989816;28;20206;-77
2021/01/15 02:33:31;;;;;;;9.20;4.90;;;-0.30;99.90;;;;;;4987357;28;20262;-77
2021/01/15 02:36:25;;;;;;;9.15;5.03;;;-0.30;99.90;;;;;;4951747;29;20527;-76
2021/01/15 02:39:05;;;;;;;10.10;5.72;;;-0.30;99.90;;;;;;4989030;28;20256;-77
2021/01/15 02:41:31;;;;;;;7.10;5.43;;;-0.30;99.90;;;;;;4988690;28;20858;-77
2021/01/15 02:44:16;;;;;;;9.27;5.30;;;-0.30;99.90;;;;;;4970907;28;20199;-77
2021/01/15 02:46:57;;;;;;;6.57;5.15;;;-0.30;99.90;;;;;;4970321;28;20266;-77
2021/01/15 02:49:24;;;;;;;7.78;4.97;;;-0.30;99.90;;;;;;4990014;28;20217;-76
2021/01/15 02:51:51;;;;;;;7.90;5.22;;;-0.30;99.90;;;;;;4956042;28;20630;-77
2021/01/15 02:54:17;;;;;;;8.23;5.10;;;-0.40;99.90;;;;;;4978887;28;20590;-76
2021/01/15 02:56:43;;;;;;;12.43;5.30;;;-0.30;99.90;;;;;;4982786;28;20234;-76
2021/01/15 02:59:09;;;;;;;11.30;5.27;;;-0.30;99.90;;;;;;4969804;28;20191;-76
2021/01/15 03:02:08;;;;;;;6.17;4.90;;;-0.30;99.90;;;;;;4977293;28;20197;-77
2021/01/15 03:05:10;;;;;;;8.43;5.53;;;-0.30;99.90;;;;;;4981414;28;20191;-77
2021/01/15 03:07:39;;;;;;;10.60;5.78;;;-0.20;99.90;;;;;;4968465;28;20210;-77
2021/01/15 03:10:06;;;;;;;9.32;4.50;;;-0.20;99.90;;;;;;4990674;28;20642;-77
2021/01/15 03:12:33;;;;;;;8.93;5.05;;;-0.20;99.90;;;;;;4983345;28;20211;-77
2021/01/15 03:14:59;;;;;;;6.90;4.55;;;-0.20;99.90;;;;;;4986326;28;20640;-77
2021/01/15 03:17:31;;;;;;;12.02;5.38;;;-0.20;99.90;;;;;;4984207;28;20294;-77
2021/01/15 03:19:57;;;;;;;11.98;5.95;;;-0.20;99.90;;;;;;4972608;28;20187;-76
2021/01/15 03:22:23;;;;;;;7.93;5.13;;;-0.20;99.90;;;;;;4978470;28;20202;-76
2021/01/15 03:24:57;;;;;;;10.13;5.05;;;-0.20;99.90;;;;;;4978647;28;20286;-76
2021/01/15 03:27:24;;;;;;;6.82;5.05;;;-0.10;99.90;;;;;;4979339;28;20712;-77
2021/01/15 03:29:50;;;;;;;10.18;4.95;;;-0.10;99.90;;;;;;4990799;28;20218;-76
2021/01/15 03:32:16;;;;;;;12.50;5.50;;;-0.10;99.90;;;;;;4991320;28;20270;-76
2021/01/15 03:34:43;;;;;;;6.38;4.50;;;0.00;99.90;;;;;;4980920;28;20206;-77
2021/01/15 03:37:08;;;;;;;12.52;5.10;;;0.00;99.90;;;;;;4971767;28;20199;-76
2021/01/15 03:39:34;;;;;;;6.37;4.63;;;0.00;99.90;;;;;;4972999;28;20210;-76
2021/01/15 03:42:01;;;;;;;18.77;6.60;;;0.00;99.90;;;;;;4976112;28;20218;-76
2021/01/15 03:44:27;;;;;;;9.02;5.55;;;0.00;99.90;;;;;;4982541;28;20227;-76
2021/01/15 03:46:56;;;;;;;9.52;5.05;;;0.00;99.90;;;;;;4974927;28;20222;-77
2021/01/15 03:49:22;;;;;;;7.90;5.60;;;0.10;99.90;;;;;;4990219;28;20207;-77
2021/01/15 03:51:48;;;;;;;7.28;5.65;;;0.10;99.90;;;;;;4988590;28;20300;-76
2021/01/15 03:54:14;;;;;;;12.03;6.50;;;0.10;99.90;;;;;;4973085;28;20326;-76
2021/01/15 03:56:40;;;;;;;8.38;5.88;;;0.10;99.90;;;;;;4955533;28;20414;-77
2021/01/15 03:59:06;;;;;;;5.80;5.07;;;0.10;99.90;;;;;;4980832;28;20188;-76
2021/01/15 04:01:34;;;;;;;10.30;6.30;;;0.10;99.90;;;;;;4972925;28;20182;-77
2021/01/15 04:04:00;;;;;;;8.70;6.75;;;0.20;99.90;;;;;;4967904;28;20284;-76
2021/01/15 04:06:26;;;;;;;9.20;5.53;;;0.20;99.90;;;;;;4979580;28;20203;-77
2021/01/15 04:08:52;;;;;;;9.67;6.27;;;0.20;99.90;;;;;;4970906;28;20290;-76
2021/01/15 04:11:19;;;;;;;9.40;5.90;;;0.20;99.90;;;;;;4973699;28;20198;-77
2021/01/15 04:13:45;;;;;;;7.45;5.78;;;0.20;99.90;;;;;;4990448;28;20485;-76
2021/01/15 04:16:15;;;;;;;12.10;5.67;;;0.30;99.90;;;;;;4975641;28;20203;-76
2021/01/15 04:18:41;;;;;;;8.82;6.45;;;0.20;99.90;;;;;;4992339;28;20269;-76
2021/01/15 04:21:07;;;;;;;9.05;6.10;;;0.30;99.90;;;;;;4995158;28;20200;-77
2021/01/15 04:23:34;;;;;;;10.57;6.87;;;0.30;99.90;;;;;;4991924;28;20238;-77
2021/01/15 04:26:01;;;;;;;10.38;6.72;;;0.30;99.90;;;;;;4982120;28;20169;-77
2021/01/15 04:28:27;;;;;;;10.35;6.38;;;0.30;99.90;;;;;;4993656;28;20218;-77
2021/01/15 04:30:53;;;;;;;8.98;6.72;;;0.30;99.90;;;;;;4977264;28;20690;-77
2021/01/15 04:33:19;;;;;;;8.60;6.33;;;0.30;99.90;;;;;;4974376;28;20219;-77
2021/01/15 04:35:44;;;;;;;10.67;5.17;;;0.30;99.90;;;;;;4993446;28;20213;-77
2021/01/15 04:38:11;;;;;;;9.03;5.93;;;0.30;99.90;;;;;;4976180;28;20453;-77
2021/01/15 04:40:37;;;;;;;10.10;6.43;;;0.30;99.90;;;;;;4994412;28;20194;-77
2021/01/15 04:43:05;;;;;;;10.50;4.82;;;0.30;99.90;;;;;;4984135;28;20298;-77
2021/01/15 04:45:31;;;;;;;10.20;5.88;;;0.40;99.90;;;;;;4992109;28;20285;-77
2021/01/15 04:47:58;;;;;;;9.63;5.38;;;0.40;99.90;;;;;;4985059;28;20222;-77
2021/01/15 04:50:24;;;;;;;9.38;6.32;;;0.30;99.90;;;;;;4975140;28;20218;-76
2021/01/15 04:52:51;;;;;;;10.45;5.47;;;0.40;99.90;;;;;;4984291;28;20217;-77
2021/01/15 04:55:24;;;;;;;9.82;5.80;;;0.40;99.90;;;;;;4981525;28;20199;-76
2021/01/15 04:57:54;;;;;;;14.70;6.30;;;0.30;99.90;;;;;;4980426;28;20211;-76
2021/01/15 05:00:25;;;;;;;11.70;5.70;;;0.30;99.90;;;;;;4993499;28;20326;-76
2021/01/15 05:02:51;;;;;;;13.65;6.82;;;0.30;99.90;;;;;;4982749;28;20215;-76
2021/01/15 05:05:27;;;;;;;12.82;7.53;;;0.40;99.90;;;;;;4970996;28;20558;-77
2021/01/15 05:08:25;;;;;;;11.75;7.25;;;0.40;99.90;;;;;;4992143;28;20336;-77
2021/01/15 05:10:52;;;;;;;13.32;6.90;;;0.40;99.90;;;;;;4955256;29;20665;-77
2021/01/15 05:13:18;;;;;;;11.00;7.05;;;0.40;99.90;;;;;;4969590;28;20286;-77
2021/01/15 05:15:49;;;;;;;12.40;7.60;;;0.40;99.90;;;;;;4990480;28;20202;-77
2021/01/15 05:18:17;;;;;;;15.80;9.57;;;0.40;99.90;;;;;;4979286;28;20457;-76
2021/01/15 05:20:44;;;;;;;14.32;7.53;;;0.50;99.90;;;;;;4984341;28;20218;-76
2021/01/15 05:23:10;;;;;;;10.57;8.00;;;0.50;99.90;;;;;;4986245;28;20686;-77
2021/01/15 05:25:42;;;;;;;12.17;7.20;;;0.50;99.90;;;;;;4990109;28;20202;-76
2021/01/15 05:28:09;;;;;;;13.88;9.90;;;0.50;99.90;;;;;;4980557;28;20458;-77
2021/01/15 05:30:38;;;;;;;11.38;8.25;;;0.40;99.90;;;;;;4986987;28;20643;-76
2021/01/15 05:33:10;;;;;;;16.20;9.50;;;0.50;99.90;;;;;;4985184;28;20210;-77
2021/01/15 05:35:39;;;;;;;17.58;9.75;;;0.50;99.90;;;;;;4990124;28;20665;-77
2021/01/15 05:38:04;;;;;;;12.55;8.55;;;0.40;99.90;;;;;;4994796;28;20257;-77
2021/01/15 05:40:55;;;;;;;13.50;8.47;;;0.40;99.90;;;;;;4980033;28;20219;-76
2021/01/15 05:43:38;;;;;;;14.95;8.90;;;0.40;99.90;;;;;;4976838;28;20211;-76
2021/01/15 05:46:11;;;;;;;16.13;9.95;;;0.40;99.90;;;;;;4993983;28;20202;-76
2021/01/15 05:48:46;;;;;;;14.25;9.00;;;0.50;99.90;;;;;;4975549;28;20249;-77
2021/01/15 05:51:21;;;;;;;13.48;8.77;;;0.50;99.90;;;;;;4978964;28;20470;-77
2021/01/15 05:53:47;;;;;;;15.10;9.60;;;0.50;99.90;;;;;;4973796;28;20210;-77
2021/01/15 05:56:13;;;;;;;19.20;9.80;;;0.50;99.90;;;;;;4974986;28;20661;-77
2021/01/15 05:59:03;;;;;;;17.20;9.10;;;0.50;99.90;;;;;;4972994;28;20527;-77
2021/01/15 06:01:46;;;;;;;14.85;8.80;;;0.50;99.90;;;;;;4982631;28;20532;-77
2021/01/15 06:04:16;;;;;;;13.77;8.30;;;0.50;99.90;;;;;;4988453;28;20658;-77
2021/01/15 06:06:43;;;;;;;13.45;9.05;;;0.50;99.90;;;;;;4972968;28;20251;-77
2021/01/15 06:09:10;;;;;;;16.92;9.25;;;0.50;99.90;;;;;;4973716;28;20203;-77
2021/01/15 06:11:40;;;;;;;11.95;9.20;;;0.50;99.90;;;;;;4974712;28;20226;-77
2021/01/15 06:14:19;;;;;;;15.73;8.88;;;0.50;99.90;;;;;;4991112;28;20202;-76
2021/01/15 06:16:45;;;;;;;13.88;9.13;;;0.50;99.90;;;;;;4974877;28;20205;-77
2021/01/15 06:19:11;;;;;;;18.83;9.18;;;0.50;99.90;;;;;;4977147;28;20229;-77
2021/01/15 06:21:37;;;;;;;15.97;10.17;;;0.50;99.90;;;;;;4993895;28;20190;-77
2021/01/15 06:24:06;;;;;;;14.23;10.20;;;0.50;99.90;;;;;;4966655;28;20953;-77
2021/01/15 06:26:37;;;;;;;13.98;9.40;;;0.50;99.90;;;;;;4990975;28;20824;-77
2021/01/15 06:29:12;;;;;;;15.43;9.38;;;0.50;99.90;;;;;;4972760;28;20171;-77
2021/01/15 06:31:49;;;;;;;17.30;9.73;;;0.50;99.90;;;;;;4972714;28;20183;-77
2021/01/15 06:34:17;;;;;;;14.70;9.55;;;0.50;99.90;;;;;;4978588;28;20182;-77
2021/01/15 06:36:53;;;;;;;13.80;8.80;;;0.50;99.90;;;;;;4977223;28;20646;-77
2021/01/15 06:39:20;;;;;;;16.20;9.93;;;0.50;99.90;;;;;;4983715;28;20622;-77
2021/01/15 06:41:58;;;;;;;11.27;9.43;;;0.50;99.90;;;;;;4991686;28;20210;-77
2021/01/15 06:44:25;;;;;;;15.25;9.15;;;0.60;99.90;;;;;;4974519;28;20303;-76
2021/01/15 06:46:53;;;;;;;14.02;10.02;;;0.60;99.90;;;;;;4973512;28;20203;-77
2021/01/15 06:49:34;;;;;;;15.82;10.45;;;0.60;99.90;;;;;;4974201;28;20209;-76
2021/01/15 06:52:00;;;;;;;15.00;9.85;;;0.50;99.90;;;;;;4977887;28;20202;-76
2021/01/15 06:54:33;;;;;;;11.33;9.03;;;0.50;99.90;;;;;;4976545;28;20191;-76
2021/01/15 06:57:27;;;;;;;13.65;9.52;;;0.50;99.90;;;;;;4972848;28;20473;-76
2021/01/15 06:59:57;;;;;;;11.95;8.23;;;0.60;99.90;;;;;;4951828;29;20254;-77
2021/01/15 07:03:07;;;;;;;11.98;8.65;;;0.60;99.90;;;;;;4981320;28;20206;-76
2021/01/15 07:05:45;;;;;;;13.00;8.55;;;0.60;99.90;;;;;;4973091;28;20236;-76
2021/01/15 07:08:12;;;;;;;13.90;9.50;;;0.60;99.90;;;;;;4974934;28;20228;-76
2021/01/15 07:10:39;;;;;;;12.23;9.23;;;0.50;99.90;;;;;;4990704;28;20210;-76
2021/01/15 07:13:09;;;;;;;14.55;10.10;;;0.60;99.90;;;;;;4980843;28;20207;-76
2021/01/15 07:15:41;;;;;;;14.93;9.98;;;0.60;99.90;;;;;;4992443;28;20221;-76
2021/01/15 07:18:24;;;;;;;14.52;9.20;;;0.60;99.90;;;;;;4973244;28;20211;-77
2021/01/15 07:20:55;;;;;;;15.00;10.00;;;0.60;99.90;;;;;;4972610;28;20341;-78
2021/01/15 07:23:39;;;;;;;13.48;9.80;;;0.50;99.90;;;;;;4989297;28;20297;-78
2021/01/15 07:26:05;;;;;;;10.95;8.23;;;0.50;99.90;;;;;;4972311;28;20203;-78
2021/01/15 07:28:31;;;;;;;16.73;8.98;;;0.50;99.90;;;;;;4971301;28;20559;-78
2021/01/15 07:31:04;;;;;;;15.60;10.07;;;0.50;99.90;;;;;;4973074;28;20222;-77
2021/01/15 07:33:34;;;;;;;14.65;9.80;;;0.60;99.90;;;;;;4993453;28;20221;-77
2021/01/15 07:35:59;;;;;;;13.98;10.02;;;0.60;99.90;;;;;;4977009;28;20203;-78
2021/01/15 07:38:25;;;;;;;13.50;9.83;;;0.60;99.90;;;;;;4973376;28;20630;-77
2021/01/15 07:40:51;;;;;;;17.07;11.77;;;0.60;99.90;;;;;;4985801;28;20234;-77
2021/01/15 07:43:30;;;;;;;15.67;10.83;;;0.60;99.90;;;;;;4973444;28;20223;-77
2021/01/15 07:46:03;;;;;;;15.25;9.50;;;0.60;99.90;;;;;;4992386;28;20292;-78
2021/01/15 07:48:29;;;;;;;16.27;11.27;;;0.50;99.90;;;;;;4979343;28;20716;-77
2021/01/15 07:50:55;;;;;;;16.40;10.20;;;0.60;99.90;;;;;;4961664;28;20214;-78
2021/01/15 07:53:38;;;;;;;14.50;10.33;;;0.60;99.90;;;;;;4994114;28;20581;-78
2021/01/15 07:56:04;;;;;;;15.60;11.13;;;0.60;99.90;;;;;;4975950;28;20944;-78
2021/01/15 07:58:37;;;;;;;24.05;11.27;;;0.60;99.90;;;;;;4975040;28;20218;-78
2021/01/15 08:01:17;;;;;;;13.35;10.30;;;0.60;99.90;;;;;;4991831;28;20190;-77
2021/01/15 08:03:49;;;;;;;16.83;10.93;;;0.60;99.90;;;;;;4974510;28;20218;-78
2021/01/15 08:06:19;;;;;;;21.95;11.82;;;0.60;99.90;;;;;;4976435;28;20199;-78
2021/01/15 08:09:05;;;;;;;14.45;10.18;;;0.60;99.90;;;;;;4975558;28;20791;-78
2021/01/15 08:11:33;;;;;;;17.90;10.80;;;0.60;99.90;;;;;;4975211;28;20605;-78
2021/01/15 08:14:11;;;;;;;15.20;11.25;;;0.60;99.90;;;;;;4974890;28;20670;-78
2021/01/15 08:16:39;;;;;;;18.95;10.93;;;0.60;99.90;;;;;;4992974;28;20198;-78
2021/01/15 08:19:09;;;;;;;15.95;10.80;;;0.60;99.90;;;;;;4995594;28;20668;-77
2021/01/15 08:21:36;;;;;;;17.98;12.52;;;0.60;99.90;;;;;;4983405;28;20215;-78
2021/01/15 08:24:03;;;;;;;24.42;12.93;;;0.60;99.90;;;;;;4997131;28;20192;-77
2021/01/15 08:26:36;;;;;;;16.70;12.60;;;0.60;99.90;;;;;;4978099;28;20227;-77
2021/01/15 08:29:06;;;;;;;22.42;13.77;;;0.60;99.90;;;;;;4974558;28;20211;-78
2021/01/15 08:31:32;;;;;;;15.57;12.48;;;0.70;99.90;;;;;;4982698;28;20191;-78
2021/01/15 08:34:08;;;;;;;30.17;14.77;;;0.70;99.90;;;;;;4979069;28;20206;-77
2021/01/15 08:36:37;;;;;;;24.40;14.10;;;0.70;99.90;;;;;;4995458;28;20429;-78
2021/01/15 08:39:04;;;;;;;30.88;15.60;;;0.70;99.90;;;;;;4995255;28;20625;-77
2021/01/15 08:41:29;;;;;;;27.10;17.25;;;0.70;99.90;;;;;;4963348;28;20191;-78
2021/01/15 08:43:55;;;;;;;25.63;14.50;;;0.70;99.90;;;;;;4995911;28;20545;-78
2021/01/15 08:46:23;;;;;;;23.00;14.90;;;0.70;99.90;;;;;;4976210;28;20915;-77
2021/01/15 08:48:49;;;;;;;22.85;15.13;;;0.70;99.90;;;;;;4975307;28;20690;-78
2021/01/15 08:51:19;;;;;;;26.63;17.45;;;0.70;99.90;;;;;;4990111;28;20202;-78
2021/01/15 08:54:05;;;;;;;30.58;16.85;;;0.70;99.90;;;;;;4983373;28;20227;-78
2021/01/15 08:56:37;;;;;;;27.15;16.70;;;0.80;99.90;;;;;;4975987;28;20191;-78
2021/01/15 08:59:04;;;;;;;26.48;16.30;;;0.80;99.90;;;;;;4954490;29;20168;-78
2021/01/15 09:01:36;;;;;;;29.80;18.95;;;0.80;99.90;;;;;;4965969;28;20201;-78
2021/01/15 09:04:09;;;;;;;29.35;18.90;;;0.80;99.90;;;;;;4974163;28;20190;-78
2021/01/15 09:06:36;;;;;;;29.15;18.88;;;0.80;99.90;;;;;;4975573;28;20714;-78
2021/01/15 09:09:09;;;;;;;33.70;19.58;;;0.80;99.90;;;;;;4976557;28;20164;-77
2021/01/15 09:11:38;;;;;;;29.38;17.95;;;0.80;99.90;;;;;;4974418;28;20207;-77
2021/01/15 09:14:04;;;;;;;30.98;19.83;;;0.80;99.90;;;;;;4985049;28;20269;-78
2021/01/15 09:16:30;;;;;;;27.88;18.38;;;0.80;99.90;;;;;;4992756;28;20183;-78
2021/01/15 09:19:07;;;;;;;30.25;17.63;;;0.90;99.90;;;;;;4993489;28;20242;-78
2021/01/15 09:21:51;;;;;;;32.75;20.85;;;0.80;99.90;;;;;;4992804;28;20189;-78
2021/01/15 09:24:19;;;;;;;24.60;17.90;;;0.90;99.90;;;;;;4993450;28;20190;-77
2021/01/15 09:26:44;;;;;;;34.42;19.45;;;0.90;99.90;;;;;;4991537;28;20608;-78
2021/01/15 09:29:11;;;;;;;35.90;21.63;;;0.90;99.90;;;;;;4974691;28;20183;-78
2021/01/15 09:31:43;;;;;;;26.63;18.50;;;0.90;99.90;;;;;;4974111;28;20198;-78
2021/01/15 09:34:15;;;;;;;27.00;18.95;;;0.90;99.90;;;;;;4957674;28;20195;-78
2021/01/15 09:36:43;;;;;;;30.35;19.88;;;0.90;99.90;;;;;;4974435;28;20266;-78
2021/01/15 09:39:10;;;;;;;32.00;19.85;;;0.90;99.90;;;;;;4954536;29;20179;-78
2021/01/15 09:41:45;;;;;;;31.15;20.48;;;0.90;99.90;;;;;;4953993;29;20599;-78
2021/01/15 09:44:12;;;;;;;28.17;18.50;;;0.90;99.90;;;;;;4977387;28;20193;-78
2021/01/15 09:46:38;;;;;;;30.98;20.50;;;1.00;99.90;;;;;;4980231;28;20249;-78
2021/01/15 09:49:04;;;;;;;31.70;20.02;;;1.00;99.90;;;;;;4974078;28;20523;-77
2021/01/15 09:51:30;;;;;;;34.97;19.57;;;1.00;99.90;;;;;;4952620;28;20208;-78
2021/01/15 09:53:56;;;;;;;33.57;19.23;;;1.00;99.90;;;;;;4973076;28;20195;-78
2021/01/15 09:56:27;;;;;;;34.70;19.88;;;1.00;99.90;;;;;;4978987;28;20277;-78
2021/01/15 09:58:54;;;;;;;31.77;19.98;;;1.00;99.90;;;;;;4990916;28;20717;-78
2021/01/15 10:01:20;;;;;;;34.30;19.20;;;1.10;99.90;;;;;;4974958;28;20732;-77
2021/01/15 10:03:46;;;;;;;28.58;17.35;;;1.10;99.90;;;;;;4992445;28;20214;-77
2021/01/15 10:06:16;;;;;;;35.60;21.63;;;1.10;99.90;;;;;;4974632;28;20186;-77
2021/01/15 10:08:43;;;;;;;34.67;22.60;;;1.10;99.90;;;;;;4980199;28;20781;-77
2021/01/15 10:11:09;;;;;;;31.98;20.60;;;1.10;99.90;;;;;;4993908;28;20194;-77
2021/01/15 10:13:35;;;;;;;32.03;20.70;;;1.20;99.90;;;;;;4992344;28;20214;-78
2021/01/15 10:16:05;;;;;;;35.73;21.47;;;1.20;99.90;;;;;;4993501;28;20175;-78
2021/01/15 10:18:31;;;;;;;36.72;24.30;;;1.20;99.90;;;;;;4974778;28;21040;-78
2021/01/15 10:20:56;;;;;;;33.37;21.37;;;1.10;99.90;;;;;;4972812;28;20182;-77
2021/01/15 10:23:25;;;;;;;36.70;22.80;;;1.10;99.90;;;;;;4989774;28;20253;-77
2021/01/15 10:25:51;;;;;;;35.15;20.60;;;1.10;99.90;;;;;;4986486;28;20534;-78
2021/01/15 10:28:17;;;;;;;30.20;21.80;;;1.20;99.90;;;;;;4984012;28;20216;-78
2021/01/15 10:30:47;;;;;;;28.80;20.10;;;1.20;99.90;;;;;;4992359;28;20210;-77
2021/01/15 10:33:13;;;;;;;40.50;22.65;;;1.20;99.90;;;;;;4992847;28;20210;-77
2021/01/15 10:35:39;;;;;;;33.35;19.73;;;1.20;99.90;;;;;;4984662;28;20179;-78
2021/01/15 10:38:05;;;;;;;32.95;21.55;;;1.20;99.90;;;;;;4971415;28;20298;-79
2021/01/15 10:40:31;;;;;;;30.60;20.10;;;1.20;99.90;;;;;;4974144;28;20247;-77
2021/01/15 10:42:56;;;;;;;33.60;21.63;;;1.20;99.90;;;;;;4972889;28;20265;-77
2021/01/15 10:45:22;;;;;;;31.67;23.07;;;1.20;99.90;;;;;;4990553;28;20422;-77
2021/01/15 10:47:48;;;;;;;30.77;20.70;;;1.20;99.90;;;;;;4973334;28;20321;-77
2021/01/15 10:50:15;;;;;;;34.63;19.50;;;1.30;99.90;;;;;;4972443;28;20298;-78
2021/01/15 10:52:41;;;;;;;29.98;19.05;;;1.30;99.90;;;;;;4980972;28;20209;-78
2021/01/15 10:55:07;;;;;;;34.30;19.37;;;1.30;99.90;;;;;;4991466;28;20541;-78
2021/01/15 10:57:33;;;;;;;32.67;19.35;;;1.30;99.90;;;;;;4977803;28;20207;-78
2021/01/15 10:59:59;;;;;;;30.50;20.70;;;1.30;99.90;;;;;;4972000;28;20178;-78
2021/01/15 11:02:24;;;;;;;31.67;18.73;;;1.20;99.90;;;;;;4971006;28;20211;-77
2021/01/15 11:04:50;;;;;;;31.23;18.73;;;1.30;99.90;;;;;;4971100;28;20229;-78
2021/01/15 11:07:16;;;;;;;27.50;18.80;;;1.30;99.90;;;;;;4982659;28;20219;-78
2021/01/15 11:09:41;;;;;;;27.80;17.67;;;1.30;99.90;;;;;;4972299;28;20210;-77
2021/01/15 11:12:07;;;;;;;26.47;17.00;;;1.30;99.90;;;;;;4979254;28;20268;-78
2021/01/15 11:14:33;;;;;;;26.23;17.08;;;1.30;99.90;;;;;;4991977;28;20276;-78
2021/01/15 11:16:59;;;;;;;33.17;19.33;;;1.30;99.90;;;;;;4989387;28;20246;-77
2021/01/15 11:19:25;;;;;;;33.20;18.80;;;1.30;99.90;;;;;;4991603;28;20274;-77
2021/01/15 11:21:51;;;;;;;31.27;19.67;;;1.40;99.90;;;;;;4969876;28;20214;-78
2021/01/15 11:24:16;;;;;;;29.93;18.60;;;1.30;99.90;;;;;;4954195;28;20439;-79
2021/01/15 11:26:42;;;;;;;31.23;20.00;;;1.30;99.90;;;;;;4956255;28;20535;-78
2021/01/15 11:29:09;;;;;;;31.40;18.70;;;1.40;99.90;;;;;;4972305;28;20670;-78
2021/01/15 11:31:36;;;;;;;35.90;19.20;;;1.40;99.90;;;;;;4975203;28;20217;-78
2021/01/15 11:34:02;;;;;;;26.60;18.38;;;1.40;99.90;;;;;;4979998;28;20931;-78
2021/01/15 11:36:31;;;;;;;37.03;19.70;;;1.40;99.90;;;;;;4990836;28;20652;-78
2021/01/15 11:39:01;;;;;;;33.22;19.15;;;1.40;99.90;;;;;;4976464;28;20668;-77
2021/01/15 11:41:26;;;;;;;35.55;19.95;;;1.40;99.90;;;;;;4954880;28;20171;-79
2021/01/15 11:43:52;;;;;;;31.23;19.00;;;1.40;99.90;;;;;;4971321;28;20285;-78
2021/01/15 11:46:18;;;;;;;31.37;19.50;;;1.40;99.90;;;;;;4972122;28;20160;-77
2021/01/15 11:48:43;;;;;;;29.67;19.40;;;1.40;99.90;;;;;;4969680;28;20277;-77
2021/01/15 11:51:10;;;;;;;31.73;18.00;;;1.40;99.90;;;;;;4971761;28;20201;-77
2021/01/15 11:53:37;;;;;;;31.67;19.75;;;1.40;99.90;;;;;;4969639;28;20218;-77
2021/01/15 11:56:05;;;;;;;37.28;21.40;;;1.40;99.90;;;;;;4971463;28;20522;-78
2021/01/15 11:58:31;;;;;;;29.58;20.80;;;1.40;99.90;;;;;;4971535;28;20262;-77
2021/01/15 12:00:57;;;;;;;34.30;21.52;;;1.40;99.90;;;;;;4971642;28;20176;-78
2021/01/15 12:03:23;;;;;;;32.85;20.10;;;1.40;99.90;;;;;;4981697;28;20298;-77
2021/01/15 12:05:50;;;;;;;33.35;19.75;;;1.40;99.90;;;;;;4971400;28;20167;-78
2021/01/15 12:08:17;;;;;;;33.88;21.35;;;1.40;99.90;;;;;;4986023;28;20253;-77
2021/01/15 12:10:42;;;;;;;30.25;20.20;;;1.40;99.90;;;;;;4990930;28;20198;-78
2021/01/15 12:13:08;;;;;;;27.70;18.93;;;1.40;99.90;;;;;;4976107;28;20230;-77
2021/01/15 12:15:34;;;;;;;30.50;20.40;;;1.40;99.90;;;;;;4970407;28;20202;-78
2021/01/15 12:17:59;;;;;;;32.57;20.47;;;1.40;99.90;;;;;;4984481;28;20233;-78
2021/01/15 12:20:26;;;;;;;28.83;19.07;;;1.40;99.90;;;;;;4991639;28;20198;-78
2021/01/15 12:22:52;;;;;;;25.88;17.77;;;1.40;99.90;;;;;;4975335;28;20219;-78
2021/01/15 12:25:17;;;;;;;32.75;19.63;;;1.50;99.90;;;;;;4979807;28;20213;-77
2021/01/15 12:27:43;;;;;;;25.33;18.63;;;1.50;99.90;;;;;;4991127;28;20689;-78
2021/01/15 12:30:09;;;;;;;34.17;19.50;;;1.50;99.90;;;;;;4989466;28;20209;-78
2021/01/15 12:32:35;;;;;;;29.63;18.70;;;1.60;99.90;;;;;;4962110;28;20215;-77
2021/01/15 12:35:02;;;;;;;26.10;18.90;;;1.60;99.90;;;;;;4975495;28;20658;-78
2021/01/15 12:37:28;;;;;;;27.05;18.20;;;1.80;99.90;;;;;;4977747;28;20289;-77
2021/01/15 12:39:55;;;;;;;32.95;19.35;;;1.90;99.90;;;;;;4992142;28;20612;-78
2021/01/15 12:42:21;;;;;;;24.55;17.42;;;2.00;99.90;;;;;;4988795;28;20211;-78
2021/01/15 12:44:47;;;;;;;27.10;18.88;;;2.10;99.90;;;;;;4974099;28;20206;-78
2021/01/15 12:47:13;;;;;;;24.73;18.53;;;2.00;99.90;;;;;;4974041;28;20203;-78
2021/01/15 12:49:39;;;;;;;28.20;18.43;;;2.00;99.90;;;;;;4973208;28;20709;-78
2021/01/15 12:52:05;;;;;;;28.97;18.80;;;2.00;99.90;;;;;;4956796;28;20203;-78
2021/01/15 12:54:30;;;;;;;24.80;17.70;;;2.00;99.90;;;;;;4978594;28;20434;-77